Ford, Washington
Current Conditions -  °F | °C
As of 11:53 PM on Wednesday 28 Jan 2015 (Local Time) from KDEW Reporting Station
Haze Haze  
Wind Chill: 17°   Ceiling: Unl
Heat Index: 23°   Visibility: 6mi
Dew Point: 21°   Wind: 5mph
Humidity: 92%   Direction: 330°NNW
Pressure: 30.45"   Gusts: NA
Location:  47.91°N, 117.81°W
Report Text: KDEW 290753Z AUTO 33004KT 6SM BR CLR M05/M06 A3045 RMK AO2 SLP335 T10501061 400281056
Loading
Personal Weather Stations






























Interactive Weather Map New forecast layout! Learn more

10-Day Weather Forecast

Advertisements
Track Severe Weather on mobile